Straw, Montana
Current Conditions -  °F | °C
As of 5:54 AM on Saturday 25 Oct 2014 (Local Time) from KLWT Reporting Station
Clear Clear  
Wind Chill: 33°   Ceiling: Unl
Heat Index: 38°   Visibility: 10mi
Dew Point: 35°   Wind: 7mph
Humidity: 89%   Direction: 120°ESE
Pressure: 30.03"   Gusts: NA
Location:  46.8407°N, 109.712°W
Report Text: KLWT 251154Z AUTO 12006KT 10SM CLR 03/02 A3003 RMK AO2 SLP170 70003 T00330017 10061 20033 56017
Loading
Personal Weather Stations






























Interactive Weather Map
Tropical Storm Tracking
New forecast layout! Learn more

10-Day Weather Forecast

Advertisements
Track Severe Weather on mobile